Terminal Aerodrome Forecast
Issued by NWS Twin Cities, MN

Home | Current Version | Previous Version | Text Only | Print | Product List | Glossary On
Versions: 1 2 3 4 5 6 7 8 9 10 11 12 13
000
FTUS43 KMPX 161700 CCA
TAFSTC
TAF COR
KSTC 161744Z 1618/1718 24010KT P6SM SKC
     FM170000 20006KT P6SM SKC
     FM171200 24002KT P6SM SCT150=

USA.gov is the U.S. government's official web portal to all federal, state and local government web resources and services.